Time;durP1;ratioP1;P1;durP2;ratioP2;P2;SDS_P1;SDS_P2;PMS_P1;PMS_P2;Temp;Humidity;BMP_temperature;BMP_pressure;BME280_temperature;BME280_humidity;BME280_pressure;Samples;Min_cycle;Max_cycle;Signal;HPM_P1;HPM_P2
2023/10/16 00:01:03;;;;;;;1999.90;999.90;;;;;;;;;;4933046;29;20371;-67
2023/10/16 00:03:01;;;;;;;1999.90;999.90;;;;;;;;;;4929266;29;20074;-67
2023/10/16 00:05:31;;;;;;;1999.90;999.90;;;;;;;;;;4932755;29;20047;-66
2023/10/16 00:07:57;;;;;;;1999.90;999.90;;;;;;;;;;4932665;29;20449;-67
2023/10/16 00:10:25;;;;;;;1999.90;999.90;;;;;;;;;;4933286;29;20062;-67
2023/10/16 00:12:51;;;;;;;1999.90;999.90;;;;;;;;;;4937119;29;20020;-66
2023/10/16 00:15:17;;;;;;;1999.90;999.90;;;;;;;;;;4936702;29;20036;-67
2023/10/16 00:17:43;;;;;;;1999.90;999.90;;;;;;;;;;4936863;29;20020;-67
2023/10/16 00:20:14;;;;;;;1999.90;999.90;;;;;;;;;;4935660;29;20040;-67
2023/10/16 00:22:43;;;;;;;1999.90;999.90;;;;;;;;;;4936828;29;20062;-67
2023/10/16 00:25:10;;;;;;;1999.90;999.90;;;;;;;;;;4936825;29;20028;-67
2023/10/16 00:27:38;;;;;;;1999.90;999.90;;;;;;;;;;4936934;29;20062;-68
2023/10/16 00:30:08;;;;;;;1999.90;999.90;;;;;;;;;;4936942;29;20439;-67
2023/10/16 00:32:37;;;;;;;1999.90;999.90;;;;;;;;;;4937152;29;20028;-68
2023/10/16 00:35:04;;;;;;;1999.90;999.90;;;;;;;;;;4936908;29;20034;-68
2023/10/16 00:37:32;;;;;;;1999.90;999.90;;;;;;;;;;4936671;29;20484;-67
2023/10/16 00:39:58;;;;;;;1999.90;999.90;;;;;;;;;;4935998;29;20070;-69
2023/10/16 00:42:24;;;;;;;1999.90;999.90;;;;;;;;;;4936177;29;20453;-67
2023/10/16 00:44:56;;;;;;;1999.90;999.90;;;;;;;;;;4936601;29;20068;-68
2023/10/16 00:47:22;;;;;;;;;;;;;;;;;;4936929;29;20028;-67
2023/10/16 00:49:49;;;;;;;1999.90;999.90;;;;;;;;;;4936638;29;19917;-66
2023/10/16 00:52:16;;;;;;;1999.90;999.90;;;;;;;;;;4935881;29;20111;-68
2023/10/16 00:54:43;;;;;;;1999.90;999.90;;;;;;;;;;4936438;29;20020;-68
2023/10/16 00:57:13;;;;;;;1999.90;999.90;;;;;;;;;;4936636;29;20028;-66
2023/10/16 00:59:41;;;;;;;1999.90;999.90;;;;;;;;;;4935970;29;20119;-68
2023/10/16 01:02:12;;;;;;;1999.90;999.90;;;;;;;;;;4936396;29;20507;-67
2023/10/16 01:04:40;;;;;;;1999.90;999.90;;;;;;;;;;4936411;29;20036;-66
2023/10/16 01:07:06;;;;;;;1999.90;999.90;;;;;;;;;;4936092;29;20023;-66
2023/10/16 01:09:35;;;;;;;1999.90;999.90;;;;;;;;;;4936330;29;20079;-65
2023/10/16 01:12:06;;;;;;;1999.90;999.90;;;;;;;;;;4935883;29;20027;-65
2023/10/16 01:14:33;;;;;;;1999.90;999.90;;;;;;;;;;4936199;29;20028;-65
2023/10/16 01:16:59;;;;;;;1999.90;999.90;;;;;;;;;;4936298;29;20023;-65
2023/10/16 01:19:25;;;;;;;1999.90;999.90;;;;;;;;;;4936247;29;20444;-65
2023/10/16 01:21:53;;;;;;;1999.90;999.90;;;;;;;;;;4935610;29;20035;-67
2023/10/16 01:24:19;;;;;;;1999.90;999.90;;;;;;;;;;4935758;29;20051;-66
2023/10/16 01:26:45;;;;;;;1999.90;999.90;;;;;;;;;;4935732;29;20108;-65
2023/10/16 01:29:14;;;;;;;1999.90;999.90;;;;;;;;;;4936219;29;20028;-66
2023/10/16 01:31:43;;;;;;;1999.90;999.90;;;;;;;;;;4935951;29;20353;-67
2023/10/16 01:34:13;;;;;;;1999.90;999.90;;;;;;;;;;4936064;29;20028;-66
2023/10/16 01:36:45;;;;;;;1999.90;999.90;;;;;;;;;;4936026;29;20024;-67
2023/10/16 01:42:03;;;;;;;1999.90;999.90;;;;;;;;;;4895692;29;20128;-66
2023/10/16 01:44:29;;;;;;;1999.90;999.90;;;;;;;;;;4895537;29;20078;-67
2023/10/16 01:46:56;;;;;;;1999.90;999.90;;;;;;;;;;4895657;29;20039;-66
2023/10/16 01:49:24;;;;;;;1999.90;999.90;;;;;;;;;;4879794;29;20078;-66
2023/10/16 01:51:55;;;;;;;1999.90;999.90;;;;;;;;;;4895612;29;20682;-66
2023/10/16 01:54:24;;;;;;;1999.90;999.90;;;;;;;;;;4895146;29;20045;-68
2023/10/16 01:56:50;;;;;;;1999.90;999.90;;;;;;;;;;4895566;29;20032;-65
2023/10/16 01:59:21;;;;;;;1999.90;999.90;;;;;;;;;;4895245;29;20080;-67
2023/10/16 02:01:47;;;;;;;1999.90;999.90;;;;;;;;;;4895473;29;20048;-69
2023/10/16 02:04:13;;;;;;;1999.90;999.90;;;;;;;;;;4894901;29;20548;-66
2023/10/16 02:06:39;;;;;;;1999.90;999.90;;;;;;;;;;4895410;29;20433;-67
2023/10/16 02:09:13;;;;;;;1999.90;999.90;;;;;;;;;;4895333;29;20040;-66
2023/10/16 02:11:40;;;;;;;1999.90;999.90;;;;;;;;;;4894843;29;20138;-66
2023/10/16 02:14:07;;;;;;;1999.90;999.90;;;;;;;;;;4894734;29;20067;-66
2023/10/16 02:16:34;;;;;;;1999.90;999.90;;;;;;;;;;4894533;29;20032;-65
2023/10/16 02:19:04;;;;;;;1999.90;999.90;;;;;;;;;;4915272;29;20499;-65
2023/10/16 02:21:32;;;;;;;1999.90;999.90;;;;;;;;;;4934335;29;20035;-65
2023/10/16 02:24:03;;;;;;;1999.90;999.90;;;;;;;;;;4934059;29;20039;-66
2023/10/16 02:26:30;;;;;;;1999.90;999.90;;;;;;;;;;4934565;29;20020;-65
2023/10/16 02:29:00;;;;;;;1999.90;999.90;;;;;;;;;;4934545;29;20531;-68
2023/10/16 02:31:29;;;;;;;1999.90;999.90;;;;;;;;;;4934446;29;20070;-66
2023/10/16 02:33:56;;;;;;;1999.90;999.90;;;;;;;;;;4933810;29;20715;-67
2023/10/16 02:36:22;;;;;;;1999.90;999.90;;;;;;;;;;4934577;29;20051;-67
2023/10/16 02:38:49;;;;;;;1999.90;999.90;;;;;;;;;;4934232;29;20035;-65
2023/10/16 02:41:19;;;;;;;1999.90;999.90;;;;;;;;;;4934838;29;20102;-67
2023/10/16 02:43:48;;;;;;;1999.90;999.90;;;;;;;;;;4934289;29;20476;-65
2023/10/16 02:46:14;;;;;;;1999.90;999.90;;;;;;;;;;4934565;29;20472;-66
2023/10/16 02:48:41;;;;;;;1999.90;999.90;;;;;;;;;;4934335;29;20111;-66
2023/10/16 02:51:09;;;;;;;1999.90;999.90;;;;;;;;;;4934230;29;20031;-66
2023/10/16 02:53:36;;;;;;;1999.90;999.90;;;;;;;;;;4932732;29;20043;-67
2023/10/16 02:56:08;;;;;;;1999.90;999.90;;;;;;;;;;4933572;29;20074;-66
2023/10/16 02:58:42;;;;;;;1999.90;999.90;;;;;;;;;;4934376;29;20030;-68
2023/10/16 03:01:13;;;;;;;1999.90;999.90;;;;;;;;;;4933688;29;20098;-67
2023/10/16 03:03:43;;;;;;;1999.90;999.90;;;;;;;;;;4934174;29;20036;-68
2023/10/16 03:06:09;;;;;;;1999.90;999.90;;;;;;;;;;4934337;29;20425;-66
2023/10/16 03:08:36;;;;;;;1999.90;999.90;;;;;;;;;;4934339;29;20039;-66
2023/10/16 03:11:06;;;;;;;1999.90;999.90;;;;;;;;;;4934011;29;20031;-67
2023/10/16 03:13:37;;;;;;;1999.90;999.90;;;;;;;;;;4934219;29;20032;-66
2023/10/16 03:16:18;;;;;;;1999.90;999.90;;;;;;;;;;4934060;29;20551;-65
2023/10/16 03:18:47;;;;;;;1999.90;999.90;;;;;;;;;;4933859;29;20365;-66
2023/10/16 03:23:43;;;;;;;1999.90;999.90;;;;;;;;;;4933873;29;20472;-67
2023/10/16 03:26:25;;;;;;;1999.90;999.90;;;;;;;;;;4933890;29;20019;-65
2023/10/16 03:28:56;;;;;;;1999.90;999.90;;;;;;;;;;4933799;29;20032;-68
2023/10/16 03:31:23;;;;;;;1999.90;999.90;;;;;;;;;;4933520;29;20020;-67
2023/10/16 03:33:49;;;;;;;1999.90;999.90;;;;;;;;;;4934004;29;20038;-65
2023/10/16 03:36:16;;;;;;;1999.90;999.90;;;;;;;;;;4933953;29;20174;-66
2023/10/16 03:38:42;;;;;;;1999.90;999.90;;;;;;;;;;4933848;29;20444;-68
2023/10/16 03:41:24;;;;;;;1999.90;999.90;;;;;;;;;;4933709;29;20078;-67
2023/10/16 03:43:57;;;;;;;1999.90;999.90;;;;;;;;;;4933644;29;20031;-68
2023/10/16 03:46:26;;;;;;;1999.90;999.90;;;;;;;;;;4933833;29;20020;-66
2023/10/16 03:48:52;;;;;;;1999.90;999.90;;;;;;;;;;4933744;29;20031;-66
2023/10/16 03:51:19;;;;;;;1999.90;999.90;;;;;;;;;;4933415;29;20510;-66
2023/10/16 03:53:45;;;;;;;1999.90;999.90;;;;;;;;;;4933246;29;20118;-66
2023/10/16 03:56:13;;;;;;;1999.90;999.90;;;;;;;;;;4933403;29;20046;-66
2023/10/16 03:58:43;;;;;;;1999.90;999.90;;;;;;;;;;4933250;29;20456;-67
2023/10/16 04:01:10;;;;;;;1999.90;999.90;;;;;;;;;;4932533;29;20546;-66
2023/10/16 04:03:46;;;;;;;1999.90;999.90;;;;;;;;;;4933340;29;20040;-67
2023/10/16 04:06:13;;;;;;;1999.90;999.90;;;;;;;;;;4932913;29;20031;-68
2023/10/16 04:08:39;;;;;;;1999.90;999.90;;;;;;;;;;4933368;29;20551;-66
2023/10/16 04:11:07;;;;;;;1999.90;999.90;;;;;;;;;;4931977;29;20388;-66
2023/10/16 04:13:34;;;;;;;1999.90;999.90;;;;;;;;;;4933180;29;20047;-67
2023/10/16 04:18:30;;;;;;;1999.90;999.90;;;;;;;;;;4933385;29;20035;-66
2023/10/16 04:21:37;;;;;;;1999.90;999.90;;;;;;;;;;4933290;29;20484;-65
2023/10/16 04:26:33;;;;;;;1999.90;999.90;;;;;;;;;;4933658;29;20119;-67
2023/10/16 04:36:54;;;;;;;1999.90;999.90;;;;;;;;;;4933172;29;20070;-67
2023/10/16 04:45:00;;;;;;;1999.90;999.90;;;;;;;;;;4933169;29;20051;-66
2023/10/16 04:47:28;;;;;;;1999.90;999.90;;;;;;;;;;4932954;29;20087;-67
2023/10/16 04:50:07;;;;;;;1999.90;999.90;;;;;;;;;;4933577;29;20027;-67
2023/10/16 05:11:36;;;;;;;1999.90;999.90;;;;;;;;;;4952793;29;20510;-67
2023/10/16 06:14:20;;;;;;;1999.90;999.90;;;;;;;;;;4936010;29;20493;-61
2023/10/16 06:16:47;;;;;;;1999.90;999.90;;;;;;;;;;4935267;29;20432;-64
2023/10/16 06:19:20;;;;;;;1999.90;999.90;;;;;;;;;;4935148;29;20023;-62
2023/10/16 06:21:48;;;;;;;1999.90;999.90;;;;;;;;;;4934094;29;20074;-67
2023/10/16 06:24:35;;;;;;;1999.90;999.90;;;;;;;;;;4935000;29;20040;-62
2023/10/16 06:27:10;;;;;;;1999.90;999.90;;;;;;;;;;4934784;29;20055;-62
2023/10/16 06:29:41;;;;;;;1999.90;999.90;;;;;;;;;;4934624;29;20106;-62
2023/10/16 06:32:07;;;;;;;1999.90;999.90;;;;;;;;;;4943268;29;20019;-62
2023/10/16 06:34:37;;;;;;;1999.90;999.90;;;;;;;;;;4943596;29;20023;-62
2023/10/16 06:37:06;;;;;;;1999.90;999.90;;;;;;;;;;4944960;29;20467;-63
2023/10/16 06:39:36;;;;;;;1999.90;999.90;;;;;;;;;;4943791;29;20066;-66
2023/10/16 06:42:03;;;;;;;1999.90;999.90;;;;;;;;;;4942504;29;20023;-62
2023/10/16 06:44:31;;;;;;;1999.90;999.90;;;;;;;;;;4944147;29;20483;-61
2023/10/16 06:46:58;;;;;;;1999.90;999.90;;;;;;;;;;4942635;29;20785;-63
2023/10/16 06:49:28;;;;;;;1999.90;999.90;;;;;;;;;;4943519;29;20042;-62
2023/10/16 06:51:56;;;;;;;1999.90;999.90;;;;;;;;;;4937207;29;20032;-70
2023/10/16 06:54:24;;;;;;;1999.90;999.90;;;;;;;;;;4939878;29;20042;-61
2023/10/16 06:56:50;;;;;;;1999.90;999.90;;;;;;;;;;4942787;29;20015;-66
2023/10/16 06:59:16;;;;;;;1999.90;999.90;;;;;;;;;;4943355;29;20344;-62
2023/10/16 07:01:46;;;;;;;1999.90;999.90;;;;;;;;;;4942162;28;20052;-70
2023/10/16 07:04:14;;;;;;;1999.90;999.90;;;;;;;;;;4939187;28;20163;-69
2023/10/16 07:06:47;;;;;;;1999.90;999.90;;;;;;;;;;4937831;29;20062;-65
2023/10/16 07:09:13;;;;;;;1999.90;999.90;;;;;;;;;;4941439;29;20020;-68
2023/10/16 07:11:42;;;;;;;1999.90;999.90;;;;;;;;;;4938027;28;20029;-62
2023/10/16 07:14:12;;;;;;;1999.90;999.90;;;;;;;;;;4934521;29;20464;-62
2023/10/16 07:16:38;;;;;;;1999.90;999.90;;;;;;;;;;4948986;29;20452;-67
2023/10/16 07:19:07;;;;;;;1999.90;999.90;;;;;;;;;;4942101;28;20411;-64
2023/10/16 07:21:33;;;;;;;1999.90;999.90;;;;;;;;;;4943355;28;20027;-61
2023/10/16 07:24:02;;;;;;;1999.90;999.90;;;;;;;;;;4943158;29;20043;-69
2023/10/16 07:26:29;;;;;;;1999.90;999.90;;;;;;;;;;4942930;29;20030;-71
2023/10/16 07:28:58;;;;;;;1999.90;999.90;;;;;;;;;;4941875;29;20519;-66
2023/10/16 07:31:24;;;;;;;1999.90;999.90;;;;;;;;;;4941457;29;20038;-68
2023/10/16 07:33:53;;;;;;;1999.90;999.90;;;;;;;;;;4942590;29;20043;-66
2023/10/16 07:36:19;;;;;;;1999.90;999.90;;;;;;;;;;4943902;29;20738;-67
2023/10/16 07:38:45;;;;;;;1999.90;999.90;;;;;;;;;;4941703;29;20028;-61
2023/10/16 07:41:18;;;;;;;1999.90;999.90;;;;;;;;;;4942699;29;20475;-66
2023/10/16 07:43:48;;;;;;;1999.90;999.90;;;;;;;;;;4941717;29;20372;-69
2023/10/16 07:46:27;;;;;;;1999.90;999.90;;;;;;;;;;4940944;29;20023;-68
2023/10/16 07:48:53;;;;;;;1999.90;999.90;;;;;;;;;;4951091;29;20027;-68
2023/10/16 07:51:20;;;;;;;1999.90;999.90;;;;;;;;;;4952378;29;20039;-68
2023/10/16 07:53:49;;;;;;;1999.90;999.90;;;;;;;;;;4941433;29;20071;-71
2023/10/16 07:56:25;;;;;;;1999.90;999.90;;;;;;;;;;4942097;29;20114;-69
2023/10/16 07:58:54;;;;;;;1999.90;999.90;;;;;;;;;;4942092;29;20024;-68
2023/10/16 08:01:36;;;;;;;1999.90;999.90;;;;;;;;;;4941587;28;20068;-68
2023/10/16 08:04:06;;;;;;;1999.90;999.90;;;;;;;;;;4946212;29;20063;-69
2023/10/16 08:06:33;;;;;;;1999.90;999.90;;;;;;;;;;4941549;29;20037;-69
2023/10/16 08:11:47;;;;;;;1999.90;999.90;;;;;;;;;;4943100;29;20443;-69
2023/10/16 08:14:13;;;;;;;1999.90;999.90;;;;;;;;;;4944315;29;20831;-65
2023/10/16 08:16:40;;;;;;;1999.90;999.90;;;;;;;;;;4945134;29;20439;-67
2023/10/16 08:19:15;;;;;;;1999.90;999.90;;;;;;;;;;4945255;29;20035;-69
2023/10/16 08:21:45;;;;;;;1999.90;999.90;;;;;;;;;;4937054;29;20439;-67
2023/10/16 08:24:13;;;;;;;1999.90;999.90;;;;;;;;;;4934562;29;20224;-65
2023/10/16 08:26:48;;;;;;;1999.90;999.90;;;;;;;;;;4935698;29;20035;-70
2023/10/16 08:31:44;;;;;;;1999.90;999.90;;;;;;;;;;4933744;29;20028;-68
2023/10/16 08:34:11;;;;;;;1999.90;999.90;;;;;;;;;;4936353;29;20067;-67
2023/10/16 08:36:37;;;;;;;1999.90;999.90;;;;;;;;;;4936360;29;20766;-63
2023/10/16 08:39:10;;;;;;;1999.90;999.90;;;;;;;;;;4936381;29;20467;-64
2023/10/16 08:41:45;;;;;;;1999.90;999.90;;;;;;;;;;4946788;29;20031;-63
2023/10/16 08:44:24;;;;;;;1999.90;999.90;;;;;;;;;;4945014;29;20041;-66
2023/10/16 08:49:25;;;;;;;1999.90;999.90;;;;;;;;;;4946387;29;20036;-68
2023/10/16 08:52:03;;;;;;;1999.90;999.90;;;;;;;;;;4945659;29;20449;-67
2023/10/16 08:54:45;;;;;;;1999.90;999.90;;;;;;;;;;4944792;29;20067;-69
2023/10/16 08:57:12;;;;;;;1999.90;999.90;;;;;;;;;;4945340;29;20565;-66
2023/10/16 08:59:38;;;;;;;1999.90;999.90;;;;;;;;;;4948909;29;20039;-68
2023/10/16 09:02:11;;;;;;;1999.90;999.90;;;;;;;;;;4944875;29;20035;-68
2023/10/16 09:04:38;;;;;;;1999.90;999.90;;;;;;;;;;4939570;29;20534;-68
2023/10/16 09:07:05;;;;;;;1999.90;999.90;;;;;;;;;;4942053;28;20039;-70
2023/10/16 09:09:32;;;;;;;1999.90;999.90;;;;;;;;;;4944716;29;20074;-66
2023/10/16 09:12:05;;;;;;;1999.90;999.90;;;;;;;;;;4941845;29;20019;-70
2023/10/16 09:14:32;;;;;;;1999.90;999.90;;;;;;;;;;4942855;29;20075;-69
2023/10/16 09:17:02;;;;;;;1999.90;999.90;;;;;;;;;;4949388;29;20031;-66
2023/10/16 09:19:33;;;;;;;1999.90;999.90;;;;;;;;;;4945996;29;20031;-67
2023/10/16 09:22:00;;;;;;;1999.90;999.90;;;;;;;;;;4945275;29;20039;-69
2023/10/16 09:24:28;;;;;;;1999.90;999.90;;;;;;;;;;4943199;29;20047;-70
2023/10/16 09:26:54;;;;;;;1999.90;999.90;;;;;;;;;;4945110;29;20027;-67
2023/10/16 09:29:27;;;;;;;1999.90;999.90;;;;;;;;;;4942886;29;20040;-63
2023/10/16 09:31:53;;;;;;;1999.90;999.90;;;;;;;;;;4943047;29;20500;-70
2023/10/16 09:34:22;;;;;;;1999.90;999.90;;;;;;;;;;4947961;29;20051;-68
2023/10/16 09:39:36;;;;;;;1999.90;999.90;;;;;;;;;;4936841;29;20720;-67
2023/10/16 09:42:11;;;;;;;1999.90;999.90;;;;;;;;;;4937166;28;20091;-65
2023/10/16 09:44:38;;;;;;;1999.90;999.90;;;;;;;;;;4945589;28;20665;-66
2023/10/16 09:49:50;;;;;;;1999.90;999.90;;;;;;;;;;4950250;29;20058;-70
2023/10/16 09:52:20;;;;;;;1999.90;999.90;;;;;;;;;;4942988;29;20023;-67
2023/10/16 09:54:48;;;;;;;1999.90;999.90;;;;;;;;;;4944384;29;20365;-69
2023/10/16 09:57:18;;;;;;;1999.90;999.90;;;;;;;;;;4945162;29;20114;-70
2023/10/16 09:59:44;;;;;;;1999.90;999.90;;;;;;;;;;4943451;29;20052;-65
2023/10/16 10:02:18;;;;;;;1999.90;999.90;;;;;;;;;;4943193;29;20071;-66
2023/10/16 10:04:53;;;;;;;1999.90;999.90;;;;;;;;;;4940313;29;20036;-70
2023/10/16 10:07:22;;;;;;;1999.90;999.90;;;;;;;;;;4935019;29;20352;-69
2023/10/16 10:09:53;;;;;;;1999.90;999.90;;;;;;;;;;4935278;29;20481;-71
2023/10/16 10:12:42;;;;;;;1999.90;999.90;;;;;;;;;;4942722;29;20035;-69
2023/10/16 10:15:25;;;;;;;1999.90;999.90;;;;;;;;;;4941638;29;20063;-70
2023/10/16 10:17:54;;;;;;;1999.90;999.90;;;;;;;;;;4943624;29;20030;-66
2023/10/16 10:20:25;;;;;;;1999.90;999.90;;;;;;;;;;4943781;29;20039;-66
2023/10/16 10:22:53;;;;;;;1999.90;999.90;;;;;;;;;;4936239;29;20047;-70
2023/10/16 10:25:35;;;;;;;1999.90;999.90;;;;;;;;;;4944349;29;20035;-69
2023/10/16 10:28:15;;;;;;;1999.90;999.90;;;;;;;;;;4935425;29;20042;-71
2023/10/16 10:30:45;;;;;;;1999.90;999.90;;;;;;;;;;4934658;29;20060;-68
2023/10/16 10:33:37;;;;;;;1999.90;999.90;;;;;;;;;;4934428;29;20104;-69
2023/10/16 10:36:21;;;;;;;1999.90;999.90;;;;;;;;;;4933655;29;20043;-68
2023/10/16 10:38:48;;;;;;;1999.90;999.90;;;;;;;;;;4934434;29;20583;-71
2023/10/16 10:41:14;;;;;;;1999.90;999.90;;;;;;;;;;4941408;29;20015;-70
2023/10/16 10:43:48;;;;;;;1999.90;999.90;;;;;;;;;;4936330;29;20186;-65
2023/10/16 10:46:27;;;;;;;1999.90;999.90;;;;;;;;;;4939462;29;20024;-69
2023/10/16 10:48:56;;;;;;;1999.90;999.90;;;;;;;;;;4940949;29;20031;-68
2023/10/16 10:51:22;;;;;;;1999.90;999.90;;;;;;;;;;4939141;29;20077;-70
2023/10/16 10:53:53;;;;;;;1999.90;999.90;;;;;;;;;;4942679;29;20034;-68
2023/10/16 10:56:20;;;;;;;1999.90;999.90;;;;;;;;;;4941444;29;20483;-73
2023/10/16 10:58:47;;;;;;;1999.90;999.90;;;;;;;;;;4949838;29;20074;-72
2023/10/16 11:01:16;;;;;;;1999.90;999.90;;;;;;;;;;4952683;29;20071;-74
2023/10/16 11:03:46;;;;;;;1999.90;999.90;;;;;;;;;;4953462;29;20487;-73
2023/10/16 11:06:19;;;;;;;1999.90;999.90;;;;;;;;;;4952782;29;20488;-71
2023/10/16 11:08:48;;;;;;;1999.90;999.90;;;;;;;;;;4953349;29;20031;-71
2023/10/16 11:11:17;;;;;;;1999.90;999.90;;;;;;;;;;4953328;29;20097;-71
2023/10/16 11:13:47;;;;;;;1999.90;999.90;;;;;;;;;;4952995;29;20032;-72
2023/10/16 11:16:15;;;;;;;1999.90;999.90;;;;;;;;;;4952534;29;20106;-75
2023/10/16 11:18:43;;;;;;;1999.90;999.90;;;;;;;;;;4951280;29;20070;-70
2023/10/16 11:21:09;;;;;;;1999.90;999.90;;;;;;;;;;4951492;29;20038;-64
2023/10/16 11:23:40;;;;;;;1999.90;999.90;;;;;;;;;;4951337;29;20136;-70
2023/10/16 11:26:07;;;;;;;1999.90;999.90;;;;;;;;;;4951305;29;20030;-71
2023/10/16 11:28:35;;;;;;;1999.90;999.90;;;;;;;;;;4951857;29;20034;-71
2023/10/16 11:31:01;;;;;;;1999.90;999.90;;;;;;;;;;4951255;29;20066;-71
2023/10/16 11:33:34;;;;;;;1999.90;999.90;;;;;;;;;;4950599;29;20019;-71
2023/10/16 11:36:03;;;;;;;1999.90;999.90;;;;;;;;;;4951863;29;20031;-73
2023/10/16 11:38:29;;;;;;;1999.90;999.90;;;;;;;;;;4952748;29;20023;-73
2023/10/16 11:41:05;;;;;;;1999.90;999.90;;;;;;;;;;4953305;29;20055;-72
2023/10/16 11:43:32;;;;;;;1999.90;999.90;;;;;;;;;;4952555;29;20378;-72
2023/10/16 11:46:05;;;;;;;1999.90;999.90;;;;;;;;;;4951077;29;20045;-72
2023/10/16 11:51:08;;;;;;;1999.90;999.90;;;;;;;;;;4947673;29;20115;-67
2023/10/16 11:53:36;;;;;;;1999.90;999.90;;;;;;;;;;4936481;29;20066;-68
2023/10/16 11:56:03;;;;;;;1999.90;999.90;;;;;;;;;;4933389;29;20024;-70
2023/10/16 11:58:32;;;;;;;1999.90;999.90;;;;;;;;;;4933594;29;20111;-70
2023/10/16 12:01:08;;;;;;;1999.90;999.90;;;;;;;;;;4933649;29;20062;-63
2023/10/16 12:03:37;;;;;;;1999.90;999.90;;;;;;;;;;4933138;29;20032;-72
2023/10/16 12:06:07;;;;;;;1999.90;999.90;;;;;;;;;;4936289;29;20526;-70
2023/10/16 12:08:33;;;;;;;1999.90;999.90;;;;;;;;;;4942383;29;20103;-68
2023/10/16 12:11:01;;;;;;;1999.90;999.90;;;;;;;;;;4941044;29;20450;-70
2023/10/16 12:13:31;;;;;;;1999.90;999.90;;;;;;;;;;4939769;29;20595;-70
2023/10/16 12:16:00;;;;;;;1999.90;999.90;;;;;;;;;;4939112;29;20027;-69
2023/10/16 12:18:28;;;;;;;1999.90;999.90;;;;;;;;;;4939280;29;20102;-67
2023/10/16 12:20:54;;;;;;;1999.90;999.90;;;;;;;;;;4939176;29;20475;-70
2023/10/16 12:23:20;;;;;;;1999.90;999.90;;;;;;;;;;4939049;29;20130;-68
2023/10/16 12:25:47;;;;;;;1999.90;999.90;;;;;;;;;;4939192;29;20031;-67
2023/10/16 12:28:13;;;;;;;1999.90;999.90;;;;;;;;;;4939004;29;20034;-69
2023/10/16 12:30:39;;;;;;;1999.90;999.90;;;;;;;;;;4938468;29;20027;-68
2023/10/16 12:33:07;;;;;;;1999.90;999.90;;;;;;;;;;4939859;29;20658;-69
2023/10/16 12:35:38;;;;;;;1999.90;999.90;;;;;;;;;;4922526;29;20040;-71
2023/10/16 12:38:07;;;;;;;1999.90;999.90;;;;;;;;;;4947267;29;20418;-64
2023/10/16 12:40:34;;;;;;;1999.90;999.90;;;;;;;;;;4953618;29;20114;-69
2023/10/16 12:43:00;;;;;;;1999.90;999.90;;;;;;;;;;4958114;28;20062;-68
2023/10/16 12:45:29;;;;;;;1999.90;999.90;;;;;;;;;;4959698;28;20560;-65
2023/10/16 12:47:56;;;;;;;1999.90;999.90;;;;;;;;;;4958339;29;20031;-69
2023/10/16 12:50:27;;;;;;;1999.90;999.90;;;;;;;;;;4959820;29;20027;-69
2023/10/16 12:52:55;;;;;;;1999.90;999.90;;;;;;;;;;4958321;29;20415;-69
2023/10/16 12:55:24;;;;;;;1999.90;999.90;;;;;;;;;;4958774;28;20448;-69
2023/10/16 12:57:51;;;;;;;1999.90;999.90;;;;;;;;;;4958559;29;20594;-70
2023/10/16 13:00:18;;;;;;;1999.90;999.90;;;;;;;;;;4958419;29;20054;-70
2023/10/16 13:02:45;;;;;;;1999.90;999.90;;;;;;;;;;4960170;28;20019;-69
2023/10/16 13:05:15;;;;;;;1999.90;999.90;;;;;;;;;;4958861;29;20050;-69
2023/10/16 13:07:43;;;;;;;1999.90;999.90;;;;;;;;;;4958149;29;20446;-69
2023/10/16 13:10:26;;;;;;;1999.90;999.90;;;;;;;;;;4958515;29;20110;-69
2023/10/16 13:12:53;;;;;;;1999.90;999.90;;;;;;;;;;4957280;29;20058;-71
2023/10/16 13:15:25;;;;;;;1999.90;999.90;;;;;;;;;;4958077;28;20037;-67
2023/10/16 13:17:52;;;;;;;;;;;;;;;;;;4955617;28;20055;-67
2023/10/16 13:20:18;;;;;;;1999.90;999.90;;;;;;;;;;4953674;29;19910;-70
2023/10/16 13:22:49;;;;;;;1999.90;999.90;;;;;;;;;;4956342;29;20035;-69
2023/10/16 13:25:16;;;;;;;1999.90;999.90;;;;;;;;;;4954978;29;20039;-70
2023/10/16 13:27:44;;;;;;;1999.90;999.90;;;;;;;;;;4955266;29;20150;-69
2023/10/16 13:30:11;;;;;;;1999.90;999.90;;;;;;;;;;4954578;29;20019;-71
2023/10/16 13:32:41;;;;;;;1999.90;999.90;;;;;;;;;;4953249;29;20608;-68
2023/10/16 13:35:12;;;;;;;1999.90;999.90;;;;;;;;;;4954885;29;20023;-71
2023/10/16 13:37:42;;;;;;;1999.90;999.90;;;;;;;;;;4954893;29;20146;-72
2023/10/16 13:40:15;;;;;;;1999.90;999.90;;;;;;;;;;4955009;29;20499;-70
2023/10/16 13:42:42;;;;;;;1999.90;999.90;;;;;;;;;;4954502;29;20529;-70
2023/10/16 13:45:12;;;;;;;1999.90;999.90;;;;;;;;;;4954400;29;20046;-71
2023/10/16 13:47:42;;;;;;;1999.90;999.90;;;;;;;;;;4954710;29;20030;-70
2023/10/16 13:50:09;;;;;;;1999.90;999.90;;;;;;;;;;4953772;29;20090;-68
2023/10/16 13:52:36;;;;;;;1999.90;999.90;;;;;;;;;;4953898;29;20078;-70
2023/10/16 13:55:11;;;;;;;1999.90;999.90;;;;;;;;;;4954715;29;20058;-73
2023/10/16 13:57:39;;;;;;;1999.90;999.90;;;;;;;;;;4954789;29;20098;-74
2023/10/16 14:00:06;;;;;;;1999.90;999.90;;;;;;;;;;4953983;29;20047;-72
2023/10/16 14:02:36;;;;;;;1999.90;999.90;;;;;;;;;;4954260;29;20034;-69
2023/10/16 14:05:06;;;;;;;1999.90;999.90;;;;;;;;;;4954550;29;20070;-74
2023/10/16 14:07:33;;;;;;;1999.90;999.90;;;;;;;;;;4954315;29;20416;-70
2023/10/16 14:10:03;;;;;;;1999.90;999.90;;;;;;;;;;4954317;29;20027;-66
2023/10/16 14:12:36;;;;;;;1999.90;999.90;;;;;;;;;;4958419;28;20027;-74
2023/10/16 14:15:03;;;;;;;1999.90;999.90;;;;;;;;;;4971898;28;20022;-71
2023/10/16 14:17:37;;;;;;;1999.90;999.90;;;;;;;;;;4973695;28;20375;-71
2023/10/16 14:20:11;;;;;;;1999.90;999.90;;;;;;;;;;4971989;28;20023;-70
2023/10/16 14:22:47;;;;;;;1999.90;999.90;;;;;;;;;;4971615;28;20029;-65
2023/10/16 14:25:13;;;;;;;1999.90;999.90;;;;;;;;;;4972392;28;20070;-72
2023/10/16 14:27:39;;;;;;;1999.90;999.90;;;;;;;;;;4972166;28;20085;-69
2023/10/16 14:30:08;;;;;;;1999.90;999.90;;;;;;;;;;4968847;28;20019;-66
2023/10/16 14:32:35;;;;;;;1999.90;999.90;;;;;;;;;;4946071;28;20505;-72
2023/10/16 14:35:01;;;;;;;1999.90;999.90;;;;;;;;;;4962183;28;20510;-67
2023/10/16 14:37:27;;;;;;;1999.90;999.90;;;;;;;;;;4970375;28;20438;-72
2023/10/16 14:39:56;;;;;;;1999.90;999.90;;;;;;;;;;4973417;28;20541;-71
2023/10/16 14:42:23;;;;;;;1999.90;999.90;;;;;;;;;;4970947;28;20034;-65
2023/10/16 14:44:49;;;;;;;1999.90;999.90;;;;;;;;;;4965786;28;20082;-71
2023/10/16 14:47:15;;;;;;;1999.90;999.90;;;;;;;;;;4954592;28;20031;-67
2023/10/16 14:49:41;;;;;;;1999.90;999.90;;;;;;;;;;4953607;28;20028;-71
2023/10/16 14:52:08;;;;;;;1999.90;999.90;;;;;;;;;;4954977;28;20491;-69
2023/10/16 14:54:35;;;;;;;1999.90;999.90;;;;;;;;;;4966708;28;20069;-69
2023/10/16 14:57:01;;;;;;;1999.90;999.90;;;;;;;;;;4962134;28;20081;-70
2023/10/16 14:59:27;;;;;;;1999.90;999.90;;;;;;;;;;4971243;28;20035;-71
2023/10/16 15:01:54;;;;;;;1999.90;999.90;;;;;;;;;;4956121;28;20046;-69
2023/10/16 15:04:25;;;;;;;1999.90;999.90;;;;;;;;;;4971858;28;20471;-68
2023/10/16 15:06:51;;;;;;;1999.90;999.90;;;;;;;;;;4972130;28;20040;-68
2023/10/16 15:09:17;;;;;;;1999.90;999.90;;;;;;;;;;4960403;28;20035;-68
2023/10/16 15:11:45;;;;;;;1999.90;999.90;;;;;;;;;;4967740;28;20027;-69
2023/10/16 15:14:14;;;;;;;1999.90;999.90;;;;;;;;;;4953428;28;20031;-68
2023/10/16 15:16:40;;;;;;;1999.90;999.90;;;;;;;;;;4959022;28;20409;-69
2023/10/16 15:19:10;;;;;;;1999.90;999.90;;;;;;;;;;4961533;28;20027;-68
2023/10/16 15:21:40;;;;;;;1999.90;999.90;;;;;;;;;;4966529;28;20118;-67
2023/10/16 15:24:08;;;;;;;1999.90;999.90;;;;;;;;;;4955366;28;20114;-69
2023/10/16 15:26:34;;;;;;;1999.90;999.90;;;;;;;;;;4965708;28;20155;-70
2023/10/16 15:29:01;;;;;;;1999.90;999.90;;;;;;;;;;4961628;28;20441;-71
2023/10/16 15:31:30;;;;;;;1999.90;999.90;;;;;;;;;;4956592;28;20082;-69
2023/10/16 15:33:56;;;;;;;1999.90;999.90;;;;;;;;;;4952455;28;20525;-71
2023/10/16 15:36:22;;;;;;;1999.90;999.90;;;;;;;;;;4951814;28;20466;-70
2023/10/16 15:38:48;;;;;;;1999.90;999.90;;;;;;;;;;4952309;28;20235;-70
2023/10/16 15:41:15;;;;;;;1999.90;999.90;;;;;;;;;;4959922;28;20035;-71
2023/10/16 15:43:42;;;;;;;1999.90;999.90;;;;;;;;;;4965287;28;20027;-68
2023/10/16 15:46:22;;;;;;;1999.90;999.90;;;;;;;;;;4967593;28;20030;-69
2023/10/16 15:48:48;;;;;;;1999.90;999.90;;;;;;;;;;4959761;28;20162;-69
2023/10/16 15:51:14;;;;;;;1999.90;999.90;;;;;;;;;;4959448;28;20465;-69